Latest Weather Observations for South Channel Island

IDV60801

Issued at 2:31 am EST Thursday 26 May 2016 (issued every 30 minutes, with the page automatically refreshed every 10 minutes)

About weather observations | Map of weather stations | Latest weather observations for VIC | Other Formats
Station Details ID: 086344 Name: SOUTH CHANNEL ISLAND Lat: -38.31 Lon: 144.80 Height: 9.0 m
Data from the previous 72 hours. | See also: Recent months for locations in Victoria
Date/Time
EST
Temp
°C
App
Temp
°C
Dew
Point
Rel
Hum
%
Delta-T
°C
Wind Press
QNH
hPa
Press
MSL
hPa
Rain
since 9 am
mm
Dir
 
Spd
km/h
Gust
km/h
Spd
kts
Gust
kts
26/02:30am - - - - - N 43 50 23 27 - - -
26/02:00am - - - - - N 44 52 24 28 - - -
26/01:30am - - - - - N 46 54 25 29 - - -
26/01:00am - - - - - N 46 54 25 29 - - -
26/12:30am - - - - - N 44 52 24 28 - - -
26/12:00am - - - - - N 50 57 27 31 - - -
 
Date/Time
EST
Temp
°C
App
Temp
°C
Dew
Point
Rel
Hum
%
Delta-T
°C
Wind Press
QNH
hPa
Press
MSL
hPa
Rain
since 9 am
mm
Dir
 
Spd
km/h
Gust
km/h
Spd
kts
Gust
kts
25/11:30pm - - - - - N 52 59 28 32 - - -
25/11:00pm - - - - - N 46 56 25 30 - - -
25/10:30pm - - - - - N 48 56 26 30 - - -
25/10:00pm - - - - - N 48 57 26 31 - - -
25/09:30pm - - - - - N 52 59 28 32 - - -
25/09:00pm - - - - - N 46 50 25 27 - - -
25/08:30pm - - - - - N 41 48 22 26 - - -
25/08:00pm - - - - - N 41 50 22 27 - - -
25/07:30pm - - - - - N 41 54 22 29 - - -
25/07:00pm - - - - - N 46 54 25 29 - - -
25/06:30pm - - - - - N 50 59 27 32 - - -
25/06:00pm - - - - - N 46 56 25 30 - - -
25/05:30pm - - - - - N 52 59 28 32 - - -
25/05:00pm - - - - - N 46 54 25 29 - - -
25/04:30pm - - - - - N 46 56 25 30 - - -
25/04:00pm - - - - - N 52 59 28 32 - - -
25/03:30pm - - - - - N 52 59 28 32 - - -
25/03:00pm - - - - - N 43 52 23 28 - - -
25/02:30pm - - - - - N 44 54 24 29 - - -
25/02:00pm - - - - - N 44 54 24 29 - - -
25/01:30pm - - - - - N 46 54 25 29 - - -
25/01:00pm - - - - - N 48 56 26 30 - - -
25/12:30pm - - - - - N 46 56 25 30 - - -
25/12:00pm - - - - - N 48 57 26 31 - - -
25/11:30am - - - - - N 48 56 26 30 - - -
25/11:00am - - - - - N 46 56 25 30 - - -
25/10:30am - - - - - N 44 52 24 28 - - -
25/10:00am - - - - - N 44 52 24 28 - - -
25/09:30am - - - - - N 43 48 23 26 - - -
25/09:00am - - - - - N 43 50 23 27 - - -
25/08:30am - - - - - N 43 52 23 28 - - -
25/08:00am - - - - - N 41 48 22 26 - - -
25/07:30am - - - - - N 37 43 20 23 - - -
25/07:00am - - - - - N 39 43 21 23 - - -
25/06:30am - - - - - N 39 43 21 23 - - -
25/06:00am - - - - - NNE 37 41 20 22 - - -
25/05:30am - - - - - N 33 37 18 20 - - -
25/05:00am - - - - - NNE 30 33 16 18 - - -
25/04:30am - - - - - NNE 28 32 15 17 - - -
25/04:00am - - - - - N 26 28 14 15 - - -
25/03:30am - - - - - N 24 26 13 14 - - -
25/03:00am - - - - - N 26 30 14 16 - - -
25/02:30am - - - - - N 26 28 14 15 - - -
25/02:00am - - - - - N 24 26 13 14 - - -
25/01:30am - - - - - N 24 26 13 14 - - -
25/01:00am - - - - - N 28 30 15 16 - - -
25/12:30am - - - - - N 28 30 15 16 - - -
25/12:00am - - - - - N 26 30 14 16 - - -
 
Date/Time
EST
Temp
°C
App
Temp
°C
Dew
Point
Rel
Hum
%
Delta-T
°C
Wind Press
QNH
hPa
Press
MSL
hPa
Rain
since 9 am
mm
Dir
 
Spd
km/h
Gust
km/h
Spd
kts
Gust
kts
24/11:30pm - - - - - N 20 26 11 14 - - -
24/11:00pm - - - - - NNW 22 26 12 14 - - -
24/10:30pm - - - - - N 22 24 12 13 - - -
24/10:00pm - - - - - N 13 15 7 8 - - -
24/09:30pm - - - - - NNW 15 15 8 8 - - -
24/09:00pm - - - - - NW 9 11 5 6 - - -
24/08:30pm - - - - - NW 7 9 4 5 - - -
24/08:00pm - - - - - WNW 9 11 5 6 - - -
24/07:30pm - - - - - NW 13 15 7 8 - - -
24/07:00pm - - - - - W 13 15 7 8 - - -
24/06:30pm - - - - - W 13 15 7 8 - - -
24/06:00pm - - - - - WSW 13 15 7 8 - - -
24/05:30pm - - - - - SW 13 15 7 8 - - -
24/05:00pm - - - - - SW 15 17 8 9 - - -
24/04:30pm - - - - - SW 19 20 10 11 - - -
24/04:00pm - - - - - SW 19 22 10 12 - - -
24/03:30pm - - - - - SW 19 22 10 12 - - -
24/03:00pm - - - - - W 19 30 10 16 - - -
24/02:30pm - - - - - W 22 26 12 14 - - -
24/02:00pm - - - - - W 28 32 15 17 - - -
24/01:30pm - - - - - W 30 35 16 19 - - -
24/01:00pm - - - - - W 33 35 18 19 - - -
24/12:30pm - - - - - W 33 37 18 20 - - -
24/12:00pm - - - - - W 30 33 16 18 - - -
24/11:30am - - - - - W 32 35 17 19 - - -
24/11:00am - - - - - W 33 37 18 20 - - -
24/10:30am - - - - - WNW 32 35 17 19 - - -
24/10:00am - - - - - WNW 33 37 18 20 - - -
24/09:30am - - - - - WNW 35 39 19 21 - - -
24/09:00am - - - - - WNW 32 35 17 19 - - -
24/08:30am - - - - - WNW 32 35 17 19 - - -
24/08:00am - - - - - WNW 32 37 17 20 - - -
24/07:30am - - - - - W 32 39 17 21 - - -
24/07:00am - - - - - WNW 33 41 18 22 - - -
24/06:30am - - - - - WNW 41 48 22 26 - - -
24/06:00am - - - - - WNW 43 50 23 27 - - -
24/05:30am - - - - - WNW 39 46 21 25 - - -
24/05:00am - - - - - WNW 37 43 20 23 - - -
24/04:30am - - - - - WNW 39 46 21 25 - - -
24/04:00am - - - - - WNW 41 48 22 26 - - -
24/03:30am - - - - - WNW 41 48 22 26 - - -
24/03:00am - - - - - WNW 43 50 23 27 - - -
24/02:30am - - - - - WNW 39 50 21 27 - - -
24/02:00am - - - - - WNW 35 41 19 22 - - -
24/01:30am - - - - - WNW 41 48 22 26 - - -
24/01:00am - - - - - WNW 41 46 22 25 - - -
24/12:30am - - - - - WNW 39 46 21 25 - - -
24/12:00am - - - - - WNW 35 41 19 22 - - -
 
Date/Time
EST
Temp
°C
App
Temp
°C
Dew
Point
Rel
Hum
%
Delta-T
°C
Wind Press
QNH
hPa
Press
MSL
hPa
Rain
since 9 am
mm
Dir
 
Spd
km/h
Gust
km/h
Spd
kts
Gust
kts
23/11:30pm - - - - - W 37 43 20 23 - - -
23/11:00pm - - - - - WNW 35 41 19 22 - - -
23/10:30pm - - - - - WNW 35 39 19 21 - - -
23/10:00pm - - - - - WNW 32 35 17 19 - - -
23/09:30pm - - - - - WNW 32 35 17 19 - - -
23/09:00pm - - - - - WNW 32 37 17 20 - - -
23/08:30pm - - - - - WNW 30 33 16 18 - - -
23/08:00pm - - - - - WNW 30 33 16 18 - - -
23/07:30pm - - - - - WNW 28 33 15 18 - - -
23/07:00pm - - - - - WNW 26 30 14 16 - - -
23/06:30pm - - - - - W 30 33 16 18 - - -
23/06:00pm - - - - - W 28 33 15 18 - - -
23/05:30pm - - - - - W 37 44 20 24 - - -
23/05:00pm - - - - - W 41 48 22 26 - - -
23/04:30pm - - - - - W 39 50 21 27 - - -
23/04:00pm - - - - - W 39 52 21 28 - - -
23/03:30pm - - - - - W 33 41 18 22 - - -
23/03:26pm - - - - - W 39 57 21 31 - - -
23/03:00pm - - - - - W 37 48 20 26 - - -
23/02:30pm - - - - - WSW 48 56 26 30 - - -
23/02:05pm - - - - - W 54 80 29 43 - - -
23/02:00pm - - - - - W 50 59 27 32 - - -
23/01:30pm - - - - - W 50 59 27 32 - - -
23/01:00pm - - - - - W 48 57 26 31 - - -
23/12:30pm - - - - - W 44 54 24 29 - - -
23/12:00pm - - - - - W 43 50 23 27 - - -
23/11:30am - - - - - W 44 54 24 29 - - -
23/11:00am - - - - - W 46 56 25 30 - - -
23/10:30am - - - - - WNW 50 61 27 33 - - -
23/10:00am - - - - - WNW 48 56 26 30 - - -
23/09:30am - - - - - WNW 46 54 25 29 - - -
23/09:00am - - - - - WNW 48 57 26 31 - - -
23/08:30am - - - - - WNW 52 61 28 33 - - -
23/08:00am - - - - - WNW 56 65 30 35 - - -
23/07:30am - - - - - W 50 61 27 33 - - -
23/07:19am - - - - - W 59 78 32 42 - - -
23/07:00am - - - - - W 57 70 31 38 - - -
23/06:32am - - - - - WNW 54 72 29 39 - - -
23/06:30am - - - - - WNW 56 72 30 39 - - -
23/06:22am - - - - - WNW 59 78 32 42 - - -
23/06:00am - - - - - NW 57 70 31 38 - - -
23/05:30am - - - - - WNW 61 76 33 41 - - -
23/05:00am - - - - - NW 54 63 29 34 - - -
23/04:30am - - - - - WNW 54 70 29 38 - - -
23/04:23am - - - - - NW 56 70 30 38 - - -
23/04:00am - - - - - NW 41 52 22 28 - - -
23/03:30am - - - - - NW 37 44 20 24 - - -
23/03:00am - - - - - NW 39 43 21 23 - - -

Other Formats:

Comma delimited format used in spreadsheet applications
http://www.bom.gov.au/fwo/IDV60801/IDV60801.94853.axf

JavaScript Object Notation format (JSON) in row-major order
http://www.bom.gov.au/fwo/IDV60801/IDV60801.94853.json